Time;durP1;ratioP1;P1;durP2;ratioP2;P2;SDS_P1;SDS_P2;PMS_P1;PMS_P2;Temp;Humidity;BMP_temperature;BMP_pressure;BME280_temperature;BME280_humidity;BME280_pressure;Samples;Min_cycle;Max_cycle;Signal;HPM_P1;HPM_P2
2023/04/17 00:01:48;;;;;;;7.40;3.08;;;;;;;11.70;100.00;99434.09;5106752;28;20034;-32
2023/04/17 00:04:14;;;;;;;6.57;3.10;;;;;;;11.69;100.00;99432.47;5106748;28;20667;-33
2023/04/17 00:06:42;;;;;;;7.80;3.25;;;;;;;11.80;100.00;99444.13;5106131;28;20099;-33
2023/04/17 00:09:08;;;;;;;7.97;3.42;;;;;;;11.65;100.00;99434.00;5106831;28;20031;-32
2023/04/17 00:11:33;;;;;;;6.68;3.45;;;;;;;11.39;100.00;99438.09;5106381;28;20602;-34
2023/04/17 00:13:59;;;;;;;6.53;2.70;;;;;;;11.41;100.00;99438.66;5106647;28;20118;-32
2023/04/17 00:16:25;;;;;;;7.00;3.38;;;;;;;11.42;100.00;99433.09;5106447;28;20024;-33
2023/04/17 00:18:52;;;;;;;5.85;2.80;;;;;;;11.36;100.00;99427.88;5106060;28;20114;-32
2023/04/17 00:21:17;;;;;;;9.55;3.90;;;;;;;11.53;100.00;99428.72;5106673;28;20061;-32
2023/04/17 00:23:44;;;;;;;6.68;2.97;;;;;;;11.58;100.00;99431.47;5106504;28;20063;-31
2023/04/17 00:26:10;;;;;;;4.95;2.88;;;;;;;11.56;100.00;99436.25;5106372;28;20038;-33
2023/04/17 00:28:35;;;;;;;6.75;3.03;;;;;;;11.47;100.00;99440.38;5106058;28;20031;-32
2023/04/17 00:31:00;;;;;;;5.93;3.05;;;;;;;11.14;100.00;99436.56;5106178;28;20023;-32
2023/04/17 00:33:26;;;;;;;5.13;2.95;;;;;;;11.15;100.00;99430.16;5106017;28;20031;-32
2023/04/17 00:35:51;;;;;;;6.03;3.10;;;;;;;10.94;100.00;99425.50;5106286;28;20043;-32
2023/04/17 00:38:17;;;;;;;5.65;2.50;;;;;;;10.83;100.00;99446.63;5106235;28;20032;-33
2023/04/17 00:40:44;;;;;;;6.90;3.20;;;;;;;10.92;100.00;99439.06;5105909;28;20027;-33
2023/04/17 00:43:09;;;;;;;6.50;3.42;;;;;;;10.91;100.00;99434.78;5106263;28;20031;-33
2023/04/17 00:45:35;;;;;;;6.55;2.83;;;;;;;10.83;100.00;99435.97;5105869;28;20106;-33
2023/04/17 00:48:02;;;;;;;8.85;2.95;;;;;;;10.86;100.00;99419.47;5105938;28;20083;-34
2023/04/17 00:50:28;;;;;;;6.90;2.80;;;;;;;10.78;100.00;99427.84;5106219;28;20030;-33
2023/04/17 00:52:54;;;;;;;9.57;3.08;;;;;;;10.91;100.00;99425.97;5105968;28;20027;-32
2023/04/17 00:55:20;;;;;;;4.65;2.50;;;;;;;10.98;100.00;99426.66;5105700;28;20055;-32
2023/04/17 00:57:48;;;;;;;6.38;2.67;;;;;;;10.79;100.00;99421.47;5106074;28;20032;-33
2023/04/17 01:00:15;;;;;;;5.93;2.47;;;;;;;10.87;100.00;99428.31;5106029;28;20027;-33
2023/04/17 01:02:41;;;;;;;6.20;2.70;;;;;;;10.97;100.00;99419.69;5105679;28;20024;-32
2023/04/17 01:05:07;;;;;;;5.95;2.67;;;;;;;10.99;100.00;99422.91;5105981;28;20019;-32
2023/04/17 01:07:32;;;;;;;11.13;3.38;;;;;;;10.89;100.00;99412.03;5105741;28;20036;-32
2023/04/17 01:09:58;;;;;;;5.88;2.45;;;;;;;10.92;100.00;99416.94;5106032;28;20443;-32
2023/04/17 01:12:24;;;;;;;6.72;2.90;;;;;;;10.94;100.00;99417.50;5105441;28;20023;-32
2023/04/17 01:14:54;;;;;;;5.00;2.63;;;;;;;10.92;100.00;99412.38;5105973;28;20038;-33
2023/04/17 01:17:20;;;;;;;4.50;2.53;;;;;;;10.94;100.00;99415.63;5105822;28;20023;-32
2023/04/17 01:19:46;;;;;;;5.45;2.63;;;;;;;11.03;100.00;99411.56;5105763;28;20073;-32
2023/04/17 01:22:13;;;;;;;4.50;2.42;;;;;;;11.02;100.00;99401.91;5105802;28;20036;-32
2023/04/17 01:24:38;;;;;;;4.90;2.38;;;;;;;10.84;100.00;99404.75;5105428;28;20028;-34
2023/04/17 01:27:05;;;;;;;6.10;2.92;;;;;;;10.98;100.00;99410.63;5105862;28;20031;-32
2023/04/17 01:29:31;;;;;;;4.78;2.50;;;;;;;10.96;100.00;99408.19;5105554;28;20519;-32
2023/04/17 01:31:56;;;;;;;5.10;2.90;;;;;;;11.04;100.00;99407.03;5105573;28;20127;-32
2023/04/17 01:34:22;;;;;;;6.25;2.70;;;;;;;11.14;100.00;99390.41;5105341;28;20030;-33
2023/04/17 01:36:47;;;;;;;5.65;2.72;;;;;;;11.26;100.00;99407.97;5105938;28;20027;-32
2023/04/17 01:39:13;;;;;;;5.82;2.55;;;;;;;11.13;100.00;99388.75;5105993;28;20031;-33
2023/04/17 01:41:38;;;;;;;7.97;3.10;;;;;;;11.06;100.00;99402.25;5105260;28;20036;-33
2023/04/17 01:44:03;;;;;;;5.97;3.13;;;;;;;11.16;100.00;99405.13;5105971;28;20106;-33
2023/04/17 01:46:29;;;;;;;5.63;2.83;;;;;;;11.01;100.00;99408.31;5105316;28;20110;-32
2023/04/17 01:48:55;;;;;;;6.43;2.90;;;;;;;11.13;100.00;99408.25;5105621;28;20028;-32
2023/04/17 01:51:20;;;;;;;7.72;3.55;;;;;;;11.45;100.00;99416.56;5105191;28;20958;-32
2023/04/17 01:53:46;;;;;;;7.28;3.33;;;;;;;11.33;100.00;99410.47;5105675;28;20113;-32
2023/04/17 01:56:12;;;;;;;6.35;3.08;;;;;;;11.39;100.00;99417.53;5105102;28;20873;-32
2023/04/17 01:58:38;;;;;;;5.15;2.78;;;;;;;11.56;100.00;99416.75;5105310;28;20040;-32
2023/04/17 02:01:04;;;;;;;5.28;3.10;;;;;;;11.20;100.00;99424.94;5105343;28;20024;-31
2023/04/17 02:03:30;;;;;;;7.90;2.90;;;;;;;11.07;100.00;99419.88;5105502;28;20096;-34
2023/04/17 02:05:56;;;;;;;5.57;3.00;;;;;;;11.04;100.00;99407.03;5105733;28;20165;-33
2023/04/17 02:08:21;;;;;;;6.55;3.05;;;;;;;11.02;100.00;99423.25;5108501;28;20035;-32
2023/04/17 02:10:47;;;;;;;5.25;3.20;;;;;;;11.29;100.00;99428.03;5109082;28;20031;-32
2023/04/17 02:13:12;;;;;;;6.03;3.15;;;;;;;11.30;100.00;99423.50;5108908;28;20525;-33
2023/04/17 02:15:38;;;;;;;7.65;3.15;;;;;;;11.44;100.00;99419.47;5108801;28;20769;-32
2023/04/17 02:18:08;;;;;;;9.05;3.95;;;;;;;11.64;100.00;99417.16;5108655;27;20046;-31
2023/04/17 02:20:33;;;;;;;6.88;4.13;;;;;;;11.41;100.00;99419.97;5109228;28;20404;-32
2023/04/17 02:22:59;;;;;;;9.05;3.95;;;;;;;11.41;100.00;99407.44;5108863;28;20015;-33
2023/04/17 02:25:28;;;;;;;6.38;4.35;;;;;;;11.53;100.00;99404.69;5108450;28;20035;-33
2023/04/17 02:27:55;;;;;;;8.80;4.40;;;;;;;11.50;100.00;99410.50;5108748;28;20027;-31
2023/04/17 02:30:21;;;;;;;6.30;4.18;;;;;;;11.56;100.00;99393.53;5108564;28;20027;-32
2023/04/17 02:32:48;;;;;;;9.07;4.18;;;;;;;11.35;100.00;99386.22;5107135;28;20534;-33
2023/04/17 02:35:14;;;;;;;10.20;4.35;;;;;;;11.37;100.00;99392.13;5108601;28;20122;-33
2023/04/17 02:37:39;;;;;;;7.97;4.53;;;;;;;11.59;100.00;99394.91;5107919;28;20130;-37
2023/04/17 02:40:06;;;;;;;11.20;4.50;;;;;;;11.52;100.00;99373.69;5108519;28;20031;-32
2023/04/17 02:42:31;;;;;;;8.10;5.25;;;;;;;11.44;100.00;99371.41;5141074;27;20036;-32
2023/04/17 02:44:57;;;;;;;7.43;4.75;;;;;;;11.62;100.00;99384.53;5108383;28;20107;-32
2023/04/17 02:47:22;;;;;;;9.75;4.93;;;;;;;11.56;100.00;99372.16;5108296;28;20032;-32
2023/04/17 02:49:48;;;;;;;9.68;4.97;;;;;;;11.47;100.00;99365.63;5108177;28;20032;-33
2023/04/17 02:52:13;;;;;;;11.90;5.45;;;;;;;11.68;100.00;99382.75;5108151;28;20054;-32
2023/04/17 02:54:39;;;;;;;9.80;5.15;;;;;;;11.70;100.00;99378.00;5108051;28;20084;-32
2023/04/17 02:57:04;;;;;;;7.00;4.03;;;;;;;11.54;100.00;99392.94;5108269;27;20032;-32
2023/04/17 02:59:30;;;;;;;7.43;4.28;;;;;;;11.04;100.00;99393.69;5108102;28;20084;-32
2023/04/17 03:01:58;;;;;;;10.55;5.05;;;;;;;11.26;100.00;99402.63;5107800;28;20019;-32
2023/04/17 03:04:24;;;;;;;;;;;;;;;10.89;100.00;99423.56;5108484;28;20024;-32
2023/04/17 03:06:50;;;;;;;8.00;3.85;;;;;;;10.65;100.00;99417.47;5107959;28;19978;-32
2023/04/17 03:09:17;;;;;;;7.30;4.70;;;;;;;10.87;100.00;99417.66;5107868;28;20118;-33
2023/04/17 03:11:42;;;;;;;6.18;3.90;;;;;;;11.13;100.00;99410.91;5107674;28;20039;-32
2023/04/17 03:14:07;;;;;;;8.68;4.20;;;;;;;10.87;100.00;99406.97;5107748;28;20030;-33
2023/04/17 03:16:33;;;;;;;8.25;4.30;;;;;;;11.01;100.00;99415.50;5107668;28;20819;-34
2023/04/17 03:18:58;;;;;;;7.30;4.10;;;;;;;10.98;100.00;99416.78;5107708;28;20019;-33
2023/04/17 03:21:24;;;;;;;6.40;3.90;;;;;;;11.06;100.00;99410.25;5107421;28;20020;-32
2023/04/17 03:23:50;;;;;;;7.47;3.75;;;;;;;11.01;100.00;99402.97;5107633;28;20027;-32
2023/04/17 03:26:15;;;;;;;8.60;5.18;;;;;;;11.33;100.00;99401.69;5107299;28;20022;-32
2023/04/17 03:28:41;;;;;;;8.77;5.18;;;;;;;10.91;100.00;99408.13;5107204;28;20059;-32
2023/04/17 03:31:06;;;;;;;8.70;4.65;;;;;;;10.88;100.00;99395.25;5107627;27;20492;-34
2023/04/17 03:33:32;;;;;;;9.65;5.13;;;;;;;10.76;100.00;99402.47;5107291;28;20023;-32
2023/04/17 03:35:57;;;;;;;7.95;4.28;;;;;;;10.77;100.00;99407.56;5107343;28;20036;-33
2023/04/17 03:38:22;;;;;;;11.10;5.60;;;;;;;10.71;100.00;99413.84;5107085;28;20075;-32
2023/04/17 03:40:48;;;;;;;11.13;5.65;;;;;;;10.61;100.00;99410.97;5107370;28;20028;-33
2023/04/17 03:43:13;;;;;;;8.25;5.20;;;;;;;10.57;100.00;99426.63;5106938;28;20420;-32
2023/04/17 03:45:39;;;;;;;8.65;4.55;;;;;;;10.48;100.00;99432.53;5107030;28;20020;-34
2023/04/17 03:48:04;;;;;;;10.75;5.38;;;;;;;10.49;100.00;99436.84;5107338;28;20020;-32
2023/04/17 03:50:30;;;;;;;11.88;5.85;;;;;;;10.28;100.00;99433.69;5106938;27;20031;-32
2023/04/17 03:52:56;;;;;;;10.15;5.20;;;;;;;10.27;100.00;99421.41;5106957;28;20812;-32
2023/04/17 03:55:21;;;;;;;9.52;5.30;;;;;;;10.36;100.00;99438.72;5106697;28;20020;-32
2023/04/17 03:57:48;;;;;;;11.85;5.50;;;;;;;10.24;100.00;99437.88;5106927;28;20539;-33
2023/04/17 04:00:15;;;;;;;12.20;5.45;;;;;;;10.38;100.00;99438.44;5107007;28;20031;-32
2023/04/17 04:02:40;;;;;;;13.98;5.68;;;;;;;10.25;100.00;99437.63;5106565;28;20027;-32
2023/04/17 04:05:06;;;;;;;8.70;5.30;;;;;;;10.31;100.00;99440.44;5106740;28;20024;-32
2023/04/17 04:07:31;;;;;;;11.90;5.43;;;;;;;10.34;100.00;99446.13;5106736;28;20051;-32
2023/04/17 04:09:57;;;;;;;9.07;5.78;;;;;;;10.51;100.00;99440.09;5106406;28;20567;-32
2023/04/17 04:12:22;;;;;;;10.07;5.63;;;;;;;10.47;100.00;99441.59;5106969;28;20102;-32
2023/04/17 04:14:48;;;;;;;10.85;5.88;;;;;;;10.49;100.00;99442.19;5106410;28;20019;-35
2023/04/17 04:17:14;;;;;;;12.52;7.43;;;;;;;10.76;100.00;99429.13;5106827;28;20032;-32
2023/04/17 04:19:39;;;;;;;13.93;6.18;;;;;;;10.65;100.00;99428.13;5106361;28;20031;-34
2023/04/17 04:22:05;;;;;;;10.90;6.38;;;;;;;10.68;100.00;99437.50;5106592;28;20054;-32
2023/04/17 04:24:32;;;;;;;11.75;6.65;;;;;;;10.69;100.00;99439.94;5106518;28;20106;-32
2023/04/17 04:27:03;;;;;;;12.95;7.20;;;;;;;10.82;100.00;99444.19;5106928;28;20526;-33
2023/04/17 04:29:29;;;;;;;12.30;6.82;;;;;;;10.78;100.00;99443.84;5106010;28;20061;-32
2023/04/17 04:31:55;;;;;;;13.40;8.00;;;;;;;10.99;100.00;99446.94;5106341;28;20023;-33
2023/04/17 04:34:24;;;;;;;16.40;8.10;;;;;;;11.06;100.00;99452.97;5106378;28;20023;-32
2023/04/17 04:36:49;;;;;;;14.98;9.05;;;;;;;11.08;100.00;99450.84;5106303;28;20027;-32
2023/04/17 04:39:20;;;;;;;18.63;11.50;;;;;;;11.06;100.00;99455.63;5106150;28;20027;-32
2023/04/17 04:41:47;;;;;;;19.38;14.00;;;;;;;10.99;100.00;99460.28;5106342;28;20035;-32
2023/04/17 04:44:12;;;;;;;17.63;10.07;;;;;;;11.05;100.00;99464.66;5106169;28;20027;-32
2023/04/17 04:46:38;;;;;;;13.27;8.30;;;;;;;11.19;100.00;99450.00;5105979;28;20028;-33
2023/04/17 04:49:03;;;;;;;15.85;8.10;;;;;;;11.27;100.00;99465.63;5106164;28;20066;-32
2023/04/17 04:51:30;;;;;;;17.83;8.63;;;;;;;11.54;100.00;99462.38;5106009;28;20015;-33
2023/04/17 04:53:56;;;;;;;18.33;9.02;;;;;;;11.39;100.00;99475.47;5106457;28;20062;-33
2023/04/17 04:56:21;;;;;;;17.33;9.32;;;;;;;11.38;100.00;99471.16;5105852;28;20059;-33
2023/04/17 04:58:47;;;;;;;16.77;9.35;;;;;;;11.35;100.00;99485.00;5105993;28;20477;-34
2023/04/17 05:01:12;;;;;;;13.95;8.27;;;;;;;11.42;100.00;99474.97;5105844;28;20053;-32
2023/04/17 05:03:39;;;;;;;15.23;8.30;;;;;;;11.59;100.00;99475.84;5106119;28;20027;-32
2023/04/17 05:06:05;;;;;;;20.38;9.82;;;;;;;11.65;100.00;99476.75;5106084;28;20156;-32
2023/04/17 05:08:31;;;;;;;16.30;8.88;;;;;;;11.71;100.00;99475.78;5096890;28;20526;-32
2023/04/17 05:10:56;;;;;;;16.27;9.35;;;;;;;11.59;100.00;99475.84;5102334;28;20032;-32
2023/04/17 05:13:22;;;;;;;15.73;8.48;;;;;;;11.80;100.00;99476.19;5101460;28;20034;-32
2023/04/17 05:15:47;;;;;;;14.73;8.18;;;;;;;11.64;100.00;99475.09;5105935;28;20104;-32
2023/04/17 05:18:12;;;;;;;17.80;9.10;;;;;;;11.60;100.00;99474.78;5105435;28;20429;-33
2023/04/17 05:20:38;;;;;;;16.17;9.48;;;;;;;11.75;100.00;99486.78;5105920;28;20027;-32
2023/04/17 05:23:03;;;;;;;14.48;9.20;;;;;;;11.78;100.00;99494.31;5105412;28;20027;-32
2023/04/17 05:25:29;;;;;;;16.05;9.30;;;;;;;11.68;100.00;99494.94;5105579;28;20035;-32
2023/04/17 05:27:54;;;;;;;15.30;9.45;;;;;;;11.79;100.00;99498.59;5104943;28;20560;-33
2023/04/17 05:30:19;;;;;;;16.52;9.57;;;;;;;11.93;100.00;99493.78;5105231;28;20478;-32
2023/04/17 05:32:45;;;;;;;14.93;9.40;;;;;;;11.89;100.00;99490.81;5105433;28;20020;-32
2023/04/17 05:35:10;;;;;;;16.83;9.95;;;;;;;12.25;100.00;99489.50;5105478;28;20024;-32
2023/04/17 05:37:36;;;;;;;17.95;11.02;;;;;;;11.98;100.00;99496.56;5105787;28;20031;-34
2023/04/17 05:40:05;;;;;;;20.05;11.43;;;;;;;11.94;100.00;99501.56;5105077;28;20038;-32
2023/04/17 05:42:31;;;;;;;32.65;16.83;;;;;;;12.11;100.00;99503.44;5108265;28;20024;-33
2023/04/17 05:44:56;;;;;;;24.17;15.70;;;;;;;11.91;100.00;99504.75;5109481;28;20020;-32
2023/04/17 05:47:21;;;;;;;18.73;12.85;;;;;;;11.63;100.00;99493.00;5109211;28;20031;-33
2023/04/17 05:49:50;;;;;;;19.15;11.68;;;;;;;11.89;100.00;99496.16;5109467;28;20736;-32
2023/04/17 05:52:15;;;;;;;19.98;12.82;;;;;;;11.96;100.00;99512.84;5109273;28;20112;-33
2023/04/17 05:54:41;;;;;;;22.88;13.27;;;;;;;11.93;100.00;99513.34;5109386;28;20126;-32
2023/04/17 05:57:06;;;;;;;21.42;13.05;;;;;;;12.11;100.00;99516.81;5108992;28;20039;-34
2023/04/17 05:59:31;;;;;;;22.13;13.38;;;;;;;12.36;100.00;99503.88;5109040;28;20024;-32
2023/04/17 06:01:58;;;;;;;20.23;12.10;;;;;;;12.72;100.00;99491.00;5108755;28;20035;-31
2023/04/17 06:04:24;;;;;;;20.05;12.15;;;;;;;12.31;100.00;99487.72;5109262;28;20034;-33
2023/04/17 06:06:49;;;;;;;23.75;14.02;;;;;;;12.17;100.00;99508.63;5108820;28;20048;-34
2023/04/17 06:09:14;;;;;;;19.10;12.23;;;;;;;12.28;100.00;99514.97;5109052;28;20031;-32
2023/04/17 06:11:40;;;;;;;21.38;13.43;;;;;;;12.27;100.00;99524.84;5109075;28;20409;-32
2023/04/17 06:14:05;;;;;;;21.80;12.95;;;;;;;12.15;100.00;99517.94;5108602;28;20042;-32
2023/04/17 06:16:31;;;;;;;21.98;15.85;;;;;;;12.26;100.00;99530.44;5108674;28;20074;-33
2023/04/17 06:18:56;;;;;;;26.73;18.83;;;;;;;12.52;100.00;99530.81;5108718;28;20110;-33
2023/04/17 06:21:22;;;;;;;25.13;20.75;;;;;;;12.23;100.00;99522.91;5108850;28;20031;-33
2023/04/17 06:23:47;;;;;;;25.33;18.90;;;;;;;12.48;100.00;99529.69;5108641;28;20019;-32
2023/04/17 06:26:12;;;;;;;24.42;18.23;;;;;;;12.43;100.00;99517.88;5108582;28;20625;-31
2023/04/17 06:28:38;;;;;;;21.65;14.52;;;;;;;12.55;100.00;99531.16;5108089;28;20411;-32
2023/04/17 06:31:03;;;;;;;25.25;17.27;;;;;;;12.56;100.00;99542.66;5108517;28;20028;-32
2023/04/17 06:33:29;;;;;;;22.65;15.63;;;;;;;12.58;100.00;99536.00;5108641;28;20020;-32
2023/04/17 06:35:55;;;;;;;18.30;10.77;;;;;;;12.52;100.00;99534.31;5107371;28;20027;-33
2023/04/17 06:38:20;;;;;;;20.30;12.05;;;;;;;12.44;100.00;99530.19;5108149;28;20042;-32
2023/04/17 06:40:46;;;;;;;25.85;19.42;;;;;;;12.58;100.00;99540.53;5107113;28;20045;-33
2023/04/17 06:43:14;;;;;;;31.30;21.58;;;;;;;12.92;100.00;99540.50;5108344;28;20027;-33
2023/04/17 06:45:41;;;;;;;21.17;14.98;;;;;;;13.00;100.00;99542.75;5108067;28;20035;-32
2023/04/17 06:48:07;;;;;;;24.83;16.17;;;;;;;12.81;100.00;99556.41;5108580;28;20034;-33
2023/04/17 06:50:32;;;;;;;27.80;20.92;;;;;;;12.69;100.00;99541.50;5107838;28;20431;-32
2023/04/17 06:52:58;;;;;;;22.77;18.80;;;;;;;12.66;100.00;99548.97;5107476;28;20031;-33
2023/04/17 06:55:25;;;;;;;22.60;16.48;;;;;;;12.68;100.00;99553.28;5108109;28;20408;-33
2023/04/17 06:57:51;;;;;;;23.65;16.75;;;;;;;12.75;100.00;99556.56;5107890;28;20032;-32
2023/04/17 07:00:17;;;;;;;22.10;14.57;;;;;;;12.61;100.00;99551.56;5107788;28;20085;-32
2023/04/17 07:02:42;;;;;;;16.52;10.50;;;;;;;12.51;100.00;99555.97;5107728;28;20110;-34
2023/04/17 07:05:08;;;;;;;17.02;11.00;;;;;;;12.64;100.00;99558.28;5108174;28;20427;-32
2023/04/17 07:07:34;;;;;;;20.67;13.15;;;;;;;12.71;100.00;99566.97;5107369;28;20043;-32
2023/04/17 07:10:00;;;;;;;54.45;49.22;;;;;;;13.00;100.00;99564.16;5107969;28;20067;-33
2023/04/17 07:12:26;;;;;;;30.35;27.35;;;;;;;13.03;100.00;99563.66;5107531;28;20102;-33
2023/04/17 07:14:51;;;;;;;22.63;13.27;;;;;;;12.83;100.00;99559.66;5107456;28;20032;-33
2023/04/17 07:17:17;;;;;;;15.95;10.77;;;;;;;12.69;100.00;99566.41;5107768;28;20053;-33
2023/04/17 07:19:43;;;;;;;21.42;17.25;;;;;;;12.59;100.00;99564.38;5107577;28;20409;-32
2023/04/17 07:22:08;;;;;;;47.38;42.70;;;;;;;12.63;100.00;99554.81;5107786;28;20020;-33
2023/04/17 07:24:34;;;;;;;36.35;28.65;;;;;;;12.57;100.00;99558.47;5107056;28;20106;-34
2023/04/17 07:27:03;;;;;;;19.73;15.07;;;;;;;12.89;100.00;99546.34;5107731;28;20104;-32
2023/04/17 07:29:29;;;;;;;22.05;17.67;;;;;;;13.02;100.00;99556.69;5107582;28;20027;-33
2023/04/17 07:31:55;;;;;;;33.95;25.75;;;;;;;13.07;100.00;99554.06;5107463;28;20080;-33
2023/04/17 07:34:20;;;;;;;37.92;31.45;;;;;;;13.24;100.00;99549.50;5107210;28;20420;-32
2023/04/17 07:36:48;;;;;;;16.83;14.30;;;;;;;13.63;100.00;99541.41;5107028;28;20084;-32
2023/04/17 07:39:14;;;;;;;13.93;7.75;;;;;;;13.56;100.00;99531.94;5107599;28;20015;-34
2023/04/17 07:41:39;;;;;;;12.73;9.05;;;;;;;13.65;100.00;99538.47;5106344;28;20024;-32
2023/04/17 07:44:05;;;;;;;11.38;7.82;;;;;;;13.52;100.00;99533.50;5107220;28;20061;-32
2023/04/17 07:46:31;;;;;;;25.33;22.83;;;;;;;13.85;100.00;99548.56;5106629;28;20076;-32
2023/04/17 07:48:57;;;;;;;13.23;9.07;;;;;;;13.78;100.00;99539.94;5107063;27;20020;-31
2023/04/17 07:51:23;;;;;;;17.60;13.48;;;;;;;14.41;100.00;99553.63;5107127;28;20024;-32
2023/04/17 07:53:48;;;;;;;14.10;8.85;;;;;;;14.41;100.00;99535.66;5106770;28;20086;-33
2023/04/17 07:56:14;;;;;;;11.80;8.13;;;;;;;14.40;100.00;99554.69;5107091;28;20116;-33
2023/04/17 07:58:39;;;;;;;13.82;9.23;;;;;;;14.64;100.00;99549.81;5106712;28;20125;-32
2023/04/17 08:01:04;;;;;;;12.90;8.75;;;;;;;15.13;100.00;99562.16;5106524;28;20039;-33
2023/04/17 08:03:30;;;;;;;12.57;8.45;;;;;;;15.15;100.00;99554.66;5106323;28;20484;-31
2023/04/17 08:05:56;;;;;;;13.45;8.57;;;;;;;14.95;100.00;99563.41;5106603;28;20066;-33
2023/04/17 08:08:22;;;;;;;10.55;7.35;;;;;;;14.60;100.00;99551.38;5106174;28;20063;-32
2023/04/17 08:10:48;;;;;;;11.13;7.88;;;;;;;14.83;100.00;99537.59;5104600;28;20036;-31
2023/04/17 08:13:14;;;;;;;12.85;8.73;;;;;;;14.79;100.00;99544.53;5101017;28;20052;-32
2023/04/17 08:15:40;;;;;;;14.18;12.05;;;;;;;14.79;100.00;99552.59;5106670;28;20040;-32
2023/04/17 08:18:09;;;;;;;15.30;9.43;;;;;;;15.04;100.00;99549.25;5106741;28;20034;-32
2023/04/17 08:20:35;;;;;;;14.82;10.48;;;;;;;15.07;100.00;99547.91;5106388;28;20077;-31
2023/04/17 08:23:00;;;;;;;12.15;8.45;;;;;;;14.93;100.00;99563.66;5106742;28;20028;-33
2023/04/17 08:25:26;;;;;;;20.77;15.73;;;;;;;14.80;100.00;99558.78;5105936;27;20092;-33
2023/04/17 08:27:51;;;;;;;24.75;17.83;;;;;;;15.12;100.00;99561.38;5106429;28;20543;-31
2023/04/17 08:30:17;;;;;;;10.75;9.32;;;;;;;15.06;100.00;99547.09;5106050;28;20032;-31
2023/04/17 08:32:47;;;;;;;11.75;8.43;;;;;;;15.48;100.00;99540.00;5106209;27;20023;-32
2023/04/17 08:35:14;;;;;;;13.07;7.68;;;;;;;15.52;100.00;99541.09;5106232;28;20027;-32
2023/04/17 08:37:41;;;;;;;11.77;9.18;;;;;;;15.36;100.00;99544.81;5105748;27;20169;-31
2023/04/17 08:40:11;;;;;;;10.23;6.45;;;;;;;15.50;100.00;99539.75;5106432;27;20488;-31
2023/04/17 08:42:38;;;;;;;11.10;7.10;;;;;;;15.63;100.00;99529.31;5106099;27;20109;-34
2023/04/17 08:45:05;;;;;;;9.57;6.65;;;;;;;16.05;100.00;99531.00;5105746;28;20028;-32
2023/04/17 08:47:34;;;;;;;11.68;6.72;;;;;;;16.41;100.00;99533.72;5106187;28;20051;-33
2023/04/17 08:50:09;;;;;;;10.43;6.55;;;;;;;16.36;100.00;99531.00;5106033;28;20028;-35
2023/04/17 08:52:42;;;;;;;10.73;7.00;;;;;;;17.04;100.00;99540.59;5106117;28;20028;-32
2023/04/17 08:55:10;;;;;;;9.77;6.32;;;;;;;16.83;100.00;99545.25;5106299;28;20015;-31
2023/04/17 08:57:53;;;;;;;9.82;5.82;;;;;;;16.79;100.00;99509.94;5105932;28;20130;-33
2023/04/17 09:00:30;;;;;;;8.52;5.63;;;;;;;17.25;100.00;99534.06;5106043;28;20030;-31
2023/04/17 09:02:57;;;;;;;19.70;14.93;;;;;;;17.66;100.00;99538.44;5105941;28;20027;-32
2023/04/17 09:05:24;;;;;;;26.35;22.90;;;;;;;17.81;98.97;99526.75;5105751;28;20058;-32
2023/04/17 09:08:04;;;;;;;30.15;24.02;;;;;;;17.74;98.73;99515.50;5105731;28;20047;-32
2023/04/17 09:10:40;;;;;;;19.27;15.63;;;;;;;18.07;98.93;99532.81;5106007;28;20081;-32
2023/04/17 09:13:06;;;;;;;9.27;7.32;;;;;;;17.75;98.87;99534.06;5105566;28;20023;-31
2023/04/17 09:15:35;;;;;;;9.60;5.82;;;;;;;17.66;96.80;99557.34;5107287;28;20042;-31
2023/04/17 09:18:01;;;;;;;11.65;8.52;;;;;;;17.74;95.84;99545.16;5110228;28;20106;-32
2023/04/17 09:20:26;;;;;;;9.73;6.93;;;;;;;18.26;96.35;99543.72;5109800;28;20035;-32
2023/04/17 09:23:03;;;;;;;8.55;6.05;;;;;;;18.47;93.95;99536.28;5109701;28;20020;-31
2023/04/17 09:25:29;;;;;;;11.02;6.40;;;;;;;18.73;92.60;99542.22;5109768;27;20020;-31
2023/04/17 09:28:07;;;;;;;12.77;7.82;;;;;;;18.05;97.43;99543.88;5109675;28;20032;-32
2023/04/17 09:30:36;;;;;;;9.82;6.55;;;;;;;17.72;98.60;99528.44;5109945;28;20076;-31
2023/04/17 09:33:03;;;;;;;9.50;5.88;;;;;;;17.30;98.98;99527.03;5109550;28;20114;-31
2023/04/17 09:35:29;;;;;;;10.48;6.78;;;;;;;17.08;98.44;99541.69;5109642;28;20031;-31
2023/04/17 09:37:58;;;;;;;10.75;6.78;;;;;;;17.74;99.85;99537.06;5109253;28;20040;-31
2023/04/17 09:40:24;;;;;;;9.90;6.57;;;;;;;17.34;97.74;99533.50;5109702;28;20035;-32
2023/04/17 09:43:02;;;;;;;11.23;6.95;;;;;;;17.38;96.77;99523.78;5109224;28;20042;-31
2023/04/17 09:45:34;;;;;;;;;;;;;;;17.34;97.49;99536.19;5109733;28;20019;-32
2023/04/17 09:48:00;;;;;;;11.15;7.57;;;;;;;17.42;100.00;99541.00;5109461;28;19912;-32
2023/04/17 09:50:26;;;;;;;8.85;7.68;;;;;;;17.71;98.50;99532.22;5109273;28;20047;-31
2023/04/17 09:52:55;;;;;;;12.45;7.88;;;;;;;17.86;97.66;99519.47;5109034;28;20019;-32
2023/04/17 09:55:22;;;;;;;13.45;8.43;;;;;;;18.15;93.76;99543.00;5109131;27;20106;-31
2023/04/17 09:57:50;;;;;;;11.70;8.27;;;;;;;18.12;93.99;99526.56;5109042;28;20032;-33
2023/04/17 10:00:18;;;;;;;11.57;8.93;;;;;;;18.14;94.07;99529.78;5109253;28;20527;-32
2023/04/17 10:02:44;;;;;;;12.05;8.55;;;;;;;17.92;92.45;99527.53;5109287;28;20047;-31
2023/04/17 10:05:10;;;;;;;11.63;8.20;;;;;;;17.77;97.25;99528.41;5108834;28;20032;-31
2023/04/17 10:07:37;;;;;;;11.35;8.10;;;;;;;17.96;94.28;99523.19;5108914;28;20043;-31
2023/04/17 10:10:08;;;;;;;12.50;8.32;;;;;;;17.89;94.23;99520.81;5109221;28;20151;-32
2023/04/17 10:12:35;;;;;;;14.13;8.73;;;;;;;17.90;94.05;99527.81;5097469;28;20040;-33
2023/04/17 10:15:02;;;;;;;16.27;12.27;;;;;;;17.62;93.37;99523.91;5108258;28;20047;-31
2023/04/17 10:17:33;;;;;;;13.40;9.52;;;;;;;17.04;96.60;99505.56;5108983;28;20031;-31
2023/04/17 10:20:13;;;;;;;16.25;9.90;;;;;;;17.38;94.46;99515.69;5108818;28;20713;-32
2023/04/17 10:22:40;;;;;;;19.27;13.27;;;;;;;17.33;96.31;99497.66;5108669;27;20023;-31
2023/04/17 10:25:14;;;;;;;14.23;11.05;;;;;;;17.36;95.32;99515.94;5108890;28;20031;-31
2023/04/17 10:27:39;;;;;;;13.27;9.35;;;;;;;17.22;96.54;99521.16;5107968;28;20027;-33
2023/04/17 10:30:11;;;;;;;14.57;10.35;;;;;;;17.23;96.25;99495.81;5108685;27;20423;-32
2023/04/17 10:32:38;;;;;;;14.32;11.57;;;;;;;16.77;100.00;99506.72;5108831;27;20027;-32
2023/04/17 10:35:15;;;;;;;15.43;12.73;;;;;;;16.44;98.85;99511.63;5108147;28;20495;-31
2023/04/17 10:37:47;;;;;;;28.25;25.38;;;;;;;16.32;100.00;99507.59;5108367;28;20038;-32
2023/04/17 10:40:19;;;;;;;14.32;11.85;;;;;;;16.39;100.00;99490.13;5108262;28;20038;-33
2023/04/17 10:43:03;;;;;;;17.15;12.35;;;;;;;16.37;100.00;99500.34;5109081;28;20051;-31
2023/04/17 10:46:00;;;;;;;16.92;11.70;;;;;;;16.14;100.00;99500.88;5108525;28;20048;-31
2023/04/17 10:48:44;;;;;;;19.40;16.07;;;;;;;15.96;100.00;99503.03;5108338;28;20051;-31
2023/04/17 10:51:25;;;;;;;15.00;11.27;;;;;;;15.73;100.00;99508.91;5108379;28;20563;-31
2023/04/17 10:53:58;;;;;;;14.63;12.43;;;;;;;15.71;100.00;99511.84;5108647;28;20023;-31
2023/04/17 10:56:27;;;;;;;16.33;12.70;;;;;;;15.45;100.00;99511.00;5108405;28;20027;-32
2023/04/17 10:59:02;;;;;;;16.13;12.48;;;;;;;15.22;100.00;99486.22;5108024;28;20043;-32
2023/04/17 11:01:46;;;;;;;19.77;17.58;;;;;;;15.26;100.00;99508.78;5108279;28;20813;-32
2023/04/17 11:04:19;;;;;;;21.20;13.50;;;;;;;15.14;100.00;99500.16;5107941;28;20031;-32
2023/04/17 11:06:45;;;;;;;16.35;14.02;;;;;;;15.24;100.00;99508.25;5108226;27;20055;-32
2023/04/17 11:09:11;;;;;;;20.67;18.05;;;;;;;14.93;100.00;99519.91;5108216;28;20023;-33
2023/04/17 11:11:39;;;;;;;20.08;14.18;;;;;;;14.64;100.00;99517.59;5107928;28;20028;-32
2023/04/17 11:14:15;;;;;;;19.55;13.82;;;;;;;14.60;100.00;99543.34;5107699;28;20031;-32
2023/04/17 11:16:43;;;;;;;15.93;9.13;;;;;;;14.13;100.00;99544.00;5107612;28;20027;-32
2023/04/17 11:19:09;;;;;;;12.75;7.50;;;;;;;13.59;100.00;99529.56;5107688;28;20039;-32